createdAt,value
2022-11-06T00:01:14.544Z,1.70
2022-11-06T00:03:43.320Z,1.27
2022-11-06T00:06:32.169Z,1.30
2022-11-06T00:09:01.150Z,1.00
2022-11-06T00:11:30.440Z,0.90
2022-11-06T00:13:58.562Z,0.80
2022-11-06T00:16:30.257Z,0.95
2022-11-06T00:19:02.288Z,0.80
2022-11-06T00:21:32.670Z,0.80
2022-11-06T00:24:03.361Z,1.15
2022-11-06T00:26:35.465Z,0.98
2022-11-06T00:29:07.434Z,1.13
2022-11-06T00:31:38.058Z,0.98
2022-11-06T00:34:08.921Z,0.77
2022-11-06T00:36:38.646Z,0.80
2022-11-06T00:39:12.212Z,1.13
2022-11-06T00:41:40.987Z,0.95
2022-11-06T00:44:12.351Z,1.45
2022-11-06T00:46:45.415Z,1.52
2022-11-06T00:49:15.605Z,1.60
2022-11-06T00:51:47.652Z,1.27
2022-11-06T00:54:16.437Z,1.52
2022-11-06T00:56:49.257Z,1.55
2022-11-06T00:59:17.351Z,1.27
2022-11-06T01:01:47.007Z,1.20
2022-11-06T01:04:28.188Z,1.20
2022-11-06T01:06:59.058Z,1.23
2022-11-06T01:09:31.859Z,1.45
2022-11-06T01:12:16.412Z,1.08
2022-11-06T01:17:18.977Z,1.58
2022-11-06T01:19:49.952Z,0.95
2022-11-06T01:22:20.093Z,1.20
2022-11-06T01:24:51.100Z,1.00
2022-11-06T01:27:28.000Z,1.20
2022-11-06T01:29:57.209Z,0.93
2022-11-06T01:32:25.922Z,1.40
2022-11-06T01:34:53.997Z,1.77
2022-11-06T01:37:23.369Z,1.10
2022-11-06T01:39:51.805Z,1.25
2022-11-06T01:42:23.035Z,1.65
2022-11-06T01:45:18.069Z,1.30
2022-11-06T01:47:48.730Z,0.95
2022-11-06T01:50:18.478Z,1.13
2022-11-06T01:52:52.525Z,1.00
2022-11-06T01:55:25.333Z,1.08
2022-11-06T01:57:54.178Z,0.93
2022-11-06T02:00:22.361Z,0.73
2022-11-06T02:02:53.618Z,1.50
2022-11-06T02:05:22.122Z,1.40
2022-11-06T02:07:52.550Z,1.05
2022-11-06T02:10:27.809Z,1.40
2022-11-06T02:13:22.155Z,0.90
2022-11-06T02:15:54.802Z,0.85
2022-11-06T02:18:43.417Z,0.88
2022-11-06T02:21:44.366Z,0.95
2022-11-06T02:24:33.705Z,1.10
2022-11-06T02:27:14.194Z,0.98
2022-11-06T02:29:48.740Z,0.70
2022-11-06T02:32:24.106Z,0.70
2022-11-06T02:34:57.592Z,1.13
2022-11-06T02:37:38.581Z,0.93
2022-11-06T02:40:10.667Z,0.90
2022-11-06T02:42:52.126Z,1.20
2022-11-06T02:45:23.616Z,0.80
2022-11-06T02:47:56.032Z,0.98
2022-11-06T02:50:33.435Z,1.05
2022-11-06T02:53:19.595Z,1.15
2022-11-06T02:55:53.840Z,1.00
2022-11-06T03:01:03.105Z,0.95
2022-11-06T03:03:38.400Z,0.93
2022-11-06T03:06:13.698Z,0.98
2022-11-06T03:08:45.729Z,0.85
2022-11-06T03:11:17.510Z,1.10
2022-11-06T03:13:53.849Z,1.98
2022-11-06T03:16:30.921Z,1.38
2022-11-06T03:19:05.779Z,1.00
2022-11-06T03:21:44.889Z,1.27
2022-11-06T03:24:20.845Z,1.33
2022-11-06T03:26:51.638Z,1.27
2022-11-06T03:29:34.080Z,1.30
2022-11-06T03:32:11.111Z,1.15
2022-11-06T03:34:47.043Z,1.50
2022-11-06T03:37:20.797Z,1.50
2022-11-06T03:39:56.573Z,0.98
2022-11-06T03:42:28.665Z,1.10
2022-11-06T03:45:08.612Z,0.98
2022-11-06T03:47:42.813Z,1.27
2022-11-06T03:52:53.274Z,1.08
2022-11-06T03:55:29.927Z,0.93
2022-11-06T03:58:04.996Z,1.60
2022-11-06T04:00:37.430Z,1.60
2022-11-06T04:03:15.480Z,1.25
2022-11-06T04:05:53.014Z,1.17
2022-11-06T04:08:45.986Z,0.85
2022-11-06T04:11:36.633Z,1.38
2022-11-06T04:14:07.562Z,1.08
2022-11-06T04:16:44.236Z,1.40
2022-11-06T04:19:31.789Z,1.17
2022-11-06T04:22:30.029Z,1.00
2022-11-06T04:25:32.042Z,1.33
2022-11-06T04:28:10.080Z,1.80
2022-11-06T04:30:57.332Z,1.65
2022-11-06T04:33:35.644Z,1.55
2022-11-06T04:36:18.869Z,1.55
2022-11-06T04:38:58.777Z,1.60
2022-11-06T04:41:40.558Z,1.60
2022-11-06T04:44:12.746Z,1.58
2022-11-06T04:47:00.078Z,1.40
2022-11-06T04:49:35.073Z,1.25
2022-11-06T04:52:05.402Z,1.05
2022-11-06T04:54:34.050Z,1.15
2022-11-06T04:57:02.898Z,1.13
2022-11-06T04:59:34.200Z,1.15
2022-11-06T05:02:04.451Z,1.27
2022-11-06T05:04:35.941Z,1.00
2022-11-06T05:07:03.848Z,1.20
2022-11-06T05:09:31.799Z,0.68
2022-11-06T05:11:59.804Z,1.23
2022-11-06T05:14:27.570Z,1.10
2022-11-06T05:17:02.539Z,1.30
2022-11-06T05:19:30.469Z,0.80
2022-11-06T05:22:17.081Z,1.20
2022-11-06T05:24:44.842Z,1.10
2022-11-06T05:27:12.811Z,1.02
2022-11-06T05:29:41.710Z,0.88
2022-11-06T05:32:09.750Z,0.98
2022-11-06T05:34:37.663Z,1.10
2022-11-06T05:37:06.937Z,1.30
2022-11-06T05:39:41.439Z,0.90
2022-11-06T05:42:09.805Z,1.00
2022-11-06T05:44:44.177Z,0.93
2022-11-06T05:47:15.038Z,0.90
2022-11-06T05:49:50.099Z,0.93
2022-11-06T05:52:19.337Z,1.10
2022-11-06T05:54:47.134Z,0.95
2022-11-06T05:57:15.140Z,0.98
2022-11-06T05:59:43.356Z,0.95
2022-11-06T06:02:14.862Z,1.23
2022-11-06T06:04:42.731Z,1.13
2022-11-06T06:07:17.834Z,1.30
2022-11-06T06:09:47.375Z,1.52
2022-11-06T06:12:16.253Z,1.23
2022-11-06T06:14:50.551Z,1.30
2022-11-06T06:17:18.633Z,1.10
2022-11-06T06:19:46.606Z,1.08
2022-11-06T06:22:16.153Z,0.98
2022-11-06T06:24:48.445Z,1.42
2022-11-06T06:27:16.166Z,1.38
2022-11-06T06:29:46.729Z,1.08
2022-11-06T06:32:14.497Z,1.55
2022-11-06T06:34:42.237Z,1.30
2022-11-06T06:37:10.602Z,0.90
2022-11-06T06:39:44.367Z,1.10
2022-11-06T06:42:13.559Z,0.93
2022-11-06T06:44:44.128Z,1.70
2022-11-06T06:47:12.641Z,1.23
2022-11-06T06:49:43.633Z,1.30
2022-11-06T06:52:11.833Z,1.27
2022-11-06T06:54:39.970Z,0.98
2022-11-06T06:57:10.410Z,1.08
2022-11-06T06:59:40.017Z,2.03
2022-11-06T07:02:13.976Z,1.38
2022-11-06T07:04:42.846Z,1.30
2022-11-06T07:07:10.560Z,1.30
2022-11-06T07:09:41.987Z,1.27
2022-11-06T07:12:10.319Z,1.30
2022-11-06T07:14:42.413Z,1.08
2022-11-06T07:17:10.219Z,1.48
2022-11-06T07:19:47.235Z,1.58
2022-11-06T07:22:17.757Z,1.17
2022-11-06T07:24:53.410Z,1.50
2022-11-06T07:27:21.176Z,1.15
2022-11-06T07:30:08.158Z,1.20
2022-11-06T07:32:36.664Z,1.08
2022-11-06T07:35:08.473Z,0.75
2022-11-06T07:37:53.979Z,1.33
2022-11-06T07:40:22.882Z,1.45
2022-11-06T07:42:51.984Z,1.33
2022-11-06T07:45:22.020Z,1.25
2022-11-06T07:47:59.188Z,1.20
2022-11-06T07:50:29.227Z,1.10
2022-11-06T07:52:57.236Z,0.93
2022-11-06T07:55:25.671Z,0.90
2022-11-06T07:58:00.149Z,0.80
2022-11-06T08:00:29.282Z,1.50
2022-11-06T08:02:57.075Z,1.20
2022-11-06T08:05:24.819Z,1.10
2022-11-06T08:07:57.818Z,1.13
2022-11-06T08:10:25.526Z,1.27
2022-11-06T08:12:53.264Z,1.15
2022-11-06T08:15:27.277Z,0.98
2022-11-06T08:17:56.418Z,1.92
2022-11-06T08:20:24.119Z,1.50
2022-11-06T08:22:51.775Z,1.35
2022-11-06T08:25:19.831Z,2.00
2022-11-06T08:27:47.660Z,1.25
2022-11-06T08:30:16.201Z,1.08
2022-11-06T08:32:44.720Z,1.00
2022-11-06T08:35:13.928Z,1.08
2022-11-06T08:37:48.039Z,1.42
2022-11-06T08:42:48.331Z,1.30
2022-11-06T08:45:22.007Z,1.52
2022-11-06T08:47:50.862Z,1.58
2022-11-06T08:50:22.811Z,1.38
2022-11-06T08:52:52.940Z,1.30
2022-11-06T08:55:23.921Z,1.40
2022-11-06T08:57:53.999Z,1.17
2022-11-06T09:00:29.298Z,1.20
2022-11-06T09:03:00.937Z,1.00
2022-11-06T09:05:30.965Z,1.00
2022-11-06T09:08:19.578Z,1.30
2022-11-06T09:10:47.560Z,1.10
2022-11-06T09:13:16.031Z,1.35
2022-11-06T09:15:44.423Z,1.95
2022-11-06T09:21:16.537Z,1.27
2022-11-06T09:23:53.579Z,1.20
2022-11-06T09:26:21.646Z,1.13
2022-11-06T09:28:56.013Z,1.50
2022-11-06T09:31:23.859Z,1.20
2022-11-06T09:33:51.907Z,0.90
2022-11-06T09:36:27.229Z,1.45
2022-11-06T09:38:55.841Z,1.20
2022-11-06T09:41:42.363Z,1.00
2022-11-06T09:44:31.775Z,1.23
2022-11-06T09:47:08.303Z,1.55
2022-11-06T09:49:42.353Z,1.00
2022-11-06T09:52:16.744Z,1.10
2022-11-06T09:54:54.953Z,1.48
2022-11-06T09:57:34.060Z,1.00
2022-11-06T10:00:03.868Z,1.17
2022-11-06T10:02:37.485Z,1.33
2022-11-06T10:05:15.172Z,1.50
2022-11-06T10:07:48.486Z,1.13
2022-11-06T10:10:18.420Z,0.82
2022-11-06T10:13:03.232Z,0.80
2022-11-06T10:15:36.396Z,0.60
2022-11-06T10:18:17.454Z,1.17
2022-11-06T10:20:52.579Z,0.90
2022-11-06T10:23:39.916Z,0.90
2022-11-06T10:26:14.870Z,1.20
2022-11-06T10:29:17.492Z,1.00
2022-11-06T10:32:01.904Z,1.00
2022-11-06T10:34:36.204Z,1.55
2022-11-06T10:39:44.413Z,1.00
2022-11-06T10:42:16.895Z,1.15
2022-11-06T10:44:54.675Z,0.77
2022-11-06T10:47:31.336Z,1.50
2022-11-06T10:50:29.269Z,1.52
2022-11-06T10:53:06.677Z,1.20
2022-11-06T10:56:00.136Z,1.33
2022-11-06T10:58:34.290Z,1.50
2022-11-06T11:01:04.295Z,2.28
2022-11-06T11:03:47.772Z,1.65
2022-11-06T11:06:15.579Z,1.20
2022-11-06T11:09:02.198Z,0.73
2022-11-06T11:11:32.307Z,0.90
2022-11-06T11:14:23.967Z,1.13
2022-11-06T11:16:51.872Z,1.20
2022-11-06T11:19:37.730Z,1.55
2022-11-06T11:22:18.176Z,1.20
2022-11-06T11:25:01.554Z,0.80
2022-11-06T11:27:33.000Z,1.10
2022-11-06T11:30:05.071Z,1.38
2022-11-06T11:32:33.046Z,0.90
2022-11-06T11:35:12.236Z,1.20
2022-11-06T11:37:40.025Z,1.42
2022-11-06T11:40:23.324Z,1.23
2022-11-06T11:42:52.539Z,0.90
2022-11-06T11:45:22.083Z,0.60
2022-11-06T11:47:51.621Z,0.70
2022-11-06T11:50:31.862Z,0.88
2022-11-06T11:53:10.235Z,0.70
2022-11-06T11:55:44.809Z,0.70
2022-11-06T12:00:56.358Z,0.40
2022-11-06T12:03:52.693Z,0.90
2022-11-06T12:06:29.963Z,0.90
2022-11-06T12:08:57.969Z,0.90
2022-11-06T12:11:31.761Z,0.82
2022-11-06T12:14:44.812Z,0.77
2022-11-06T12:17:22.820Z,0.85
2022-11-06T12:19:56.579Z,0.80
2022-11-06T12:22:32.430Z,0.80
2022-11-06T12:25:04.621Z,0.40
2022-11-06T12:27:38.025Z,0.60
2022-11-06T12:30:13.874Z,0.73
2022-11-06T12:33:04.360Z,0.75
2022-11-06T12:35:33.482Z,0.77
2022-11-06T12:38:12.124Z,0.80
2022-11-06T12:40:41.409Z,0.50
2022-11-06T12:43:28.411Z,0.60
2022-11-06T12:46:25.257Z,0.60
2022-11-06T12:49:11.544Z,0.85
2022-11-06T12:51:49.816Z,0.70
2022-11-06T12:54:54.141Z,0.40
2022-11-06T12:57:41.665Z,0.70
2022-11-06T13:00:31.484Z,0.60
2022-11-06T13:03:42.869Z,0.40
2022-11-06T13:06:22.749Z,0.57
2022-11-06T13:09:00.820Z,0.70
2022-11-06T13:11:40.327Z,0.90
2022-11-06T13:14:21.461Z,0.68
2022-11-06T13:17:00.890Z,0.85
2022-11-06T13:19:38.587Z,0.80
2022-11-06T13:22:30.415Z,0.90
2022-11-06T13:25:07.545Z,1.10
2022-11-06T13:27:42.812Z,0.80
2022-11-06T13:30:16.700Z,0.70
2022-11-06T13:33:06.619Z,0.73
2022-11-06T13:35:37.576Z,0.60
2022-11-06T13:41:16.725Z,0.90
2022-11-06T13:46:40.775Z,0.50
2022-11-06T13:49:21.537Z,0.70
2022-11-06T13:51:53.931Z,0.50
2022-11-06T13:54:34.652Z,0.32
2022-11-06T13:57:34.959Z,0.82
2022-11-06T14:00:19.314Z,0.57
2022-11-06T14:03:19.762Z,0.55
2022-11-06T14:06:01.208Z,0.60
2022-11-06T14:08:33.173Z,0.73
2022-11-06T14:11:06.625Z,0.85
2022-11-06T14:13:56.428Z,0.70
2022-11-06T14:16:37.365Z,0.70
2022-11-06T14:19:10.583Z,0.65
2022-11-06T14:21:48.901Z,0.68
2022-11-06T14:24:43.597Z,0.80
2022-11-06T14:27:34.096Z,0.52
2022-11-06T14:30:07.955Z,0.47
2022-11-06T14:32:56.057Z,0.75
2022-11-06T14:35:54.000Z,0.30
2022-11-06T14:38:42.747Z,0.40
2022-11-06T14:41:50.187Z,0.43
2022-11-06T14:44:44.639Z,0.45
2022-11-06T14:47:42.448Z,0.60
2022-11-06T14:50:28.504Z,0.70
2022-11-06T14:53:00.182Z,0.80
2022-11-06T14:55:33.252Z,0.40
2022-11-06T14:58:18.435Z,0.90
2022-11-06T15:00:53.412Z,0.40
2022-11-06T15:03:54.395Z,0.60
2022-11-06T15:06:45.901Z,0.40
2022-11-06T15:09:51.640Z,0.40
2022-11-06T15:12:19.608Z,0.38
2022-11-06T15:14:59.068Z,0.57
2022-11-06T15:17:30.073Z,0.60
2022-11-06T15:20:22.018Z,0.47
2022-11-06T15:23:00.941Z,0.60
2022-11-06T15:25:29.936Z,0.63
2022-11-06T15:28:05.461Z,0.80
2022-11-06T15:30:44.654Z,0.60
2022-11-06T15:33:28.622Z,0.50
2022-11-06T15:36:07.183Z,0.65
2022-11-06T15:38:42.000Z,0.32
2022-11-06T15:41:18.708Z,0.40
2022-11-06T15:43:48.601Z,0.40
2022-11-06T15:46:22.823Z,0.63
2022-11-06T15:51:41.255Z,0.47
2022-11-06T15:54:14.708Z,0.47
2022-11-06T15:56:42.990Z,0.77
2022-11-06T15:59:13.871Z,0.60
2022-11-06T16:01:47.882Z,1.00
2022-11-06T16:04:19.534Z,0.60
2022-11-06T16:06:49.785Z,0.85
2022-11-06T16:09:20.315Z,0.70
2022-11-06T16:12:00.005Z,0.68
2022-11-06T16:14:39.191Z,0.93
2022-11-06T16:17:11.679Z,0.65
2022-11-06T16:19:46.852Z,0.60
2022-11-06T16:22:18.552Z,0.57
2022-11-06T16:25:18.591Z,0.77
2022-11-06T16:27:46.494Z,0.80
2022-11-06T16:30:25.258Z,0.75
2022-11-06T16:32:53.844Z,0.70
2022-11-06T16:35:37.899Z,0.40
2022-11-06T16:41:08.688Z,1.00
2022-11-06T16:43:38.857Z,0.57
2022-11-06T16:46:08.773Z,0.50
2022-11-06T16:48:39.780Z,0.60
2022-11-06T16:51:10.991Z,0.57
2022-11-06T16:53:51.553Z,0.70
2022-11-06T16:56:25.746Z,0.70
2022-11-06T17:01:27.584Z,0.60
2022-11-06T17:03:59.593Z,0.60
2022-11-06T17:06:32.194Z,0.65
2022-11-06T17:09:25.450Z,0.63
2022-11-06T17:11:55.845Z,0.60
2022-11-06T17:14:25.820Z,0.60
2022-11-06T17:16:56.354Z,0.80
2022-11-06T17:19:25.078Z,0.68
2022-11-06T17:21:53.175Z,0.70
2022-11-06T17:24:38.680Z,0.80
2022-11-06T17:27:07.934Z,0.73
2022-11-06T17:29:36.858Z,1.10
2022-11-06T17:32:04.832Z,0.63
2022-11-06T17:34:32.867Z,0.77
2022-11-06T17:37:00.796Z,0.80
2022-11-06T17:39:30.853Z,1.30
2022-11-06T17:41:58.717Z,0.95
2022-11-06T17:44:28.298Z,1.20
2022-11-06T17:46:56.124Z,1.20
2022-11-06T17:49:24.099Z,1.10
2022-11-06T17:51:53.522Z,1.05
2022-11-06T17:54:23.535Z,0.88
2022-11-06T17:56:53.568Z,1.02
2022-11-06T17:59:24.008Z,0.98
2022-11-06T18:01:55.043Z,0.70
2022-11-06T18:04:25.108Z,0.63
2022-11-06T18:06:55.940Z,0.90
2022-11-06T18:09:27.897Z,0.60
2022-11-06T18:11:56.550Z,0.80
2022-11-06T18:14:26.357Z,0.75
2022-11-06T18:16:55.824Z,0.70
2022-11-06T18:19:25.508Z,0.95
2022-11-06T18:21:54.125Z,0.93
2022-11-06T18:24:22.046Z,0.95
2022-11-06T18:26:54.025Z,1.10
2022-11-06T18:29:24.547Z,0.95
2022-11-06T18:31:58.753Z,1.23
2022-11-06T18:34:34.991Z,1.00
2022-11-06T18:37:07.751Z,0.70
2022-11-06T18:39:40.969Z,0.90
2022-11-06T18:42:22.559Z,0.95
2022-11-06T18:44:55.493Z,0.98
2022-11-06T18:47:26.613Z,1.15
2022-11-06T18:50:00.808Z,0.68
2022-11-06T18:52:56.990Z,0.95
2022-11-06T18:55:27.668Z,1.13
2022-11-06T18:57:58.278Z,1.23
2022-11-06T19:00:30.537Z,1.20
2022-11-06T19:03:06.082Z,1.10
2022-11-06T19:05:35.645Z,0.80
2022-11-06T19:08:06.972Z,1.23
2022-11-06T19:10:39.214Z,1.05
2022-11-06T19:13:13.973Z,0.80
2022-11-06T19:15:46.593Z,0.70
2022-11-06T19:21:21.036Z,0.70
2022-11-06T19:23:52.457Z,0.57
2022-11-06T19:26:36.043Z,0.60
2022-11-06T19:29:08.756Z,0.70
2022-11-06T19:31:37.879Z,1.00
2022-11-06T19:34:17.233Z,1.00
2022-11-06T19:36:59.540Z,0.70
2022-11-06T19:39:31.263Z,0.80
2022-11-06T19:42:01.956Z,0.93
2022-11-06T19:44:30.144Z,0.80
2022-11-06T19:47:01.968Z,1.00
2022-11-06T19:49:31.762Z,0.90
2022-11-06T19:52:41.562Z,0.60
2022-11-06T19:54:49.053Z,0.52
2022-11-06T19:57:29.535Z,0.70
2022-11-06T20:00:13.824Z,0.90
2022-11-06T20:02:42.190Z,1.00
2022-11-06T20:05:22.748Z,1.05
2022-11-06T20:07:50.910Z,0.75
2022-11-06T20:10:19.304Z,0.73
2022-11-06T20:12:50.819Z,0.80
2022-11-06T20:15:23.799Z,1.17
2022-11-06T20:17:55.777Z,1.00
2022-11-06T20:20:31.828Z,0.75
2022-11-06T20:23:03.918Z,0.95
2022-11-06T20:25:32.699Z,0.95
2022-11-06T20:28:00.756Z,1.02
2022-11-06T20:30:28.509Z,1.05
2022-11-06T20:32:56.287Z,0.70
2022-11-06T20:35:24.319Z,1.52
2022-11-06T20:37:53.961Z,0.82
2022-11-06T20:40:21.955Z,0.82
2022-11-06T20:42:49.763Z,1.13
2022-11-06T20:45:23.758Z,1.23
2022-11-06T20:47:54.092Z,0.88
2022-11-06T20:50:27.932Z,1.02
2022-11-06T20:53:22.950Z,1.17
2022-11-06T20:55:50.762Z,1.20
2022-11-06T20:58:19.175Z,1.70
2022-11-06T21:00:47.147Z,1.77
2022-11-06T21:03:15.278Z,1.67
2022-11-06T21:05:43.701Z,1.38
2022-11-06T21:08:19.508Z,2.25
2022-11-06T21:10:56.173Z,2.72
2022-11-06T21:13:24.212Z,2.00
2022-11-06T21:15:57.717Z,1.60
2022-11-06T21:18:26.763Z,1.75
2022-11-06T21:20:54.966Z,1.98
2022-11-06T21:23:23.057Z,1.55
2022-11-06T21:25:51.080Z,1.90
2022-11-06T21:28:20.228Z,1.05
2022-11-06T21:30:49.813Z,1.73
2022-11-06T21:33:17.682Z,1.92
2022-11-06T21:35:45.569Z,1.75
2022-11-06T21:38:13.344Z,1.88
2022-11-06T21:40:41.427Z,1.65
2022-11-06T21:43:09.452Z,1.23
2022-11-06T21:45:38.785Z,1.17
2022-11-06T21:48:14.800Z,1.40
2022-11-06T21:50:57.873Z,1.20
2022-11-06T21:53:43.353Z,1.40
2022-11-06T21:56:14.538Z,1.95
2022-11-06T21:58:42.682Z,1.67
2022-11-06T22:01:12.276Z,1.40
2022-11-06T22:03:41.038Z,1.52
2022-11-06T22:06:11.726Z,1.80
2022-11-06T22:08:44.755Z,1.70
2022-11-06T22:11:17.451Z,1.08
2022-11-06T22:13:46.670Z,1.10
2022-11-06T22:16:18.523Z,1.27
2022-11-06T22:18:49.720Z,1.15
2022-11-06T22:21:22.959Z,1.00
2022-11-06T22:23:51.633Z,1.20
2022-11-06T22:26:21.927Z,1.00
2022-11-06T22:29:02.656Z,1.83
2022-11-06T22:31:33.153Z,1.10
2022-11-06T22:34:04.198Z,0.82
2022-11-06T22:36:32.099Z,1.55
2022-11-06T22:39:00.822Z,1.80
2022-11-06T22:41:28.719Z,1.92
2022-11-06T22:43:59.676Z,1.10
2022-11-06T22:46:28.807Z,1.10
2022-11-06T22:48:58.779Z,1.13
2022-11-06T22:51:30.572Z,0.98
2022-11-06T22:53:58.712Z,1.38
2022-11-06T22:56:28.465Z,1.40
2022-11-06T22:58:57.616Z,1.25
2022-11-06T23:01:27.550Z,1.30
2022-11-06T23:03:57.836Z,1.05
2022-11-06T23:06:27.858Z,1.40
2022-11-06T23:08:56.064Z,1.17
2022-11-06T23:11:26.236Z,1.10
2022-11-06T23:13:54.614Z,0.90
2022-11-06T23:16:44.783Z,0.82
2022-11-06T23:19:14.733Z,0.80
2022-11-06T23:21:44.639Z,0.90
2022-11-06T23:24:13.131Z,1.00
2022-11-06T23:26:42.899Z,1.02
2022-11-06T23:29:11.301Z,1.00
2022-11-06T23:31:41.040Z,0.95
2022-11-06T23:34:09.007Z,1.42
2022-11-06T23:36:36.997Z,1.33
2022-11-06T23:39:06.660Z,1.20
2022-11-06T23:41:45.641Z,1.20
2022-11-06T23:44:33.780Z,1.67
2022-11-06T23:47:02.620Z,1.58
2022-11-06T23:49:30.563Z,1.70
2022-11-06T23:52:01.841Z,1.92
2022-11-06T23:54:31.127Z,1.75
2022-11-06T23:56:58.948Z,1.63
2022-11-06T23:59:27.013Z,1.20
